Time;durP1;ratioP1;P1;durP2;ratioP2;P2;SDS_P1;SDS_P2;PMS_P1;PMS_P2;Temp;Humidity;BMP_temperature;BMP_pressure;BME280_temperature;BME280_humidity;BME280_pressure;Samples;Min_cycle;Max_cycle;Signal;HPM_P1;HPM_P2
2022/05/20 00:00:06;;;;;;;;;;;23.30;69.20;23.30;100069.00;;;;342775;28;89136;-85
2022/05/20 00:00:18;;;;;;;;;;;23.30;69.20;23.30;100077.00;;;;345985;28;83409;-85
2022/05/20 00:00:29;;;;;;;;;;;23.30;69.20;23.30;100075.00;;;;345693;28;88939;-85
2022/05/20 00:00:41;;;;;;;;;;;23.30;69.20;23.30;100064.00;;;;348777;27;83827;-85
2022/05/20 00:00:53;;;;;;;;;;;23.30;69.10;23.40;100066.00;;;;345595;28;89110;-85
2022/05/20 00:01:06;;;;;;;;;;;23.30;69.20;23.40;100067.00;;;;347257;28;83438;-85
2022/05/20 00:01:18;;;;;;;;;;;23.30;69.10;23.40;100069.00;;;;346754;28;93490;-85
2022/05/20 00:01:30;;;;;;;;;;;23.30;69.00;23.40;100070.00;;;;348519;27;83522;-86
2022/05/20 00:01:42;;;;;;;;;;;23.30;69.10;23.40;100070.00;;;;347016;28;89335;-85
2022/05/20 00:01:53;;;;;;;;;;;23.30;69.10;23.40;100063.00;;;;347376;28;82346;-85
2022/05/20 00:02:05;;;;;;;;;;;23.30;69.10;23.30;100079.00;;;;345630;28;88832;-85
2022/05/20 00:02:17;;;;;;;;;;;23.30;69.10;23.40;100077.00;;;;345968;28;82362;-85
2022/05/20 00:02:29;;;;;;;;;;;23.30;69.10;23.40;100074.00;;;;344109;28;90570;-85
2022/05/20 00:02:41;;;;;;;;;;;23.30;69.20;23.30;100067.00;;;;345951;28;83319;-85
2022/05/20 00:02:53;;;;;;;;;;;23.30;69.10;23.30;100073.00;;;;345552;28;89434;-85
2022/05/20 00:03:05;;;;;;;;;;;23.30;69.10;23.40;100076.00;;;;347178;28;83297;-85
2022/05/20 00:03:17;;;;;;;;;;;23.30;69.10;23.40;100073.00;;;;345469;28;92549;-85
2022/05/20 00:03:31;;;;;;;;;;;23.30;69.10;23.40;100069.00;;;;345451;28;82511;-85
2022/05/20 00:03:43;;;;;;;;;;;23.30;69.10;23.40;100069.00;;;;345888;28;92414;-85
2022/05/20 00:03:55;;;;;;;;;;;23.30;69.00;23.40;100076.00;;;;347200;28;83413;-85
2022/05/20 00:04:06;;;;;;;;;;;23.30;68.90;23.40;100069.00;;;;345592;28;89892;-85
2022/05/20 00:04:18;;;;;;;;;;;23.30;69.00;23.30;100073.00;;;;345906;28;83328;-86
2022/05/20 00:04:30;;;;;;;;;;;23.30;69.10;23.40;100076.00;;;;345491;28;88792;-85
2022/05/20 00:04:41;;;;;;;;;;;23.30;69.10;23.40;100080.00;;;;345843;28;83251;-84
2022/05/20 00:04:53;;;;;;;;;;;23.30;69.10;23.40;100081.00;;;;348243;27;91716;-85
2022/05/20 00:05:05;;;;;;;;;;;23.30;69.10;23.40;100080.00;;;;347329;28;82588;-85
2022/05/20 00:05:17;;;;;;;;;;;23.30;69.00;23.40;100079.00;;;;345552;28;89807;-85
2022/05/20 00:05:29;;;;;;;;;;;23.30;69.00;23.40;100075.00;;;;345955;28;82201;-85
2022/05/20 00:05:40;;;;;;;;;;;23.30;68.90;23.40;100068.00;;;;344207;28;88975;-85
2022/05/20 00:05:54;;;;;;;;;;;23.30;69.00;23.30;100075.00;;;;346022;28;83240;-85
2022/05/20 00:06:05;;;;;;;;;;;23.30;69.10;23.30;100084.00;;;;345556;28;88801;-85
2022/05/20 00:06:17;;;;;;;;;;;23.30;69.10;23.40;100078.00;;;;345938;28;82332;-85
2022/05/20 00:06:29;;;;;;;;;;;23.30;69.00;23.40;100078.00;;;;345124;28;88083;-85
2022/05/20 00:06:41;;;;;;;;;;;23.30;69.10;23.30;100075.00;;;;345632;28;84109;-85
2022/05/20 00:06:52;;;;;;;;;;;23.30;69.00;23.30;100083.00;;;;345479;28;90385;-85
2022/05/20 00:07:04;;;;;;;;;;;23.30;69.00;23.30;100086.00;;;;345877;28;83346;-85
2022/05/20 00:07:16;;;;;;;;;;;23.30;69.10;23.30;100073.00;;;;346942;28;90066;-85
2022/05/20 00:07:27;;;;;;;;;;;23.30;69.00;23.30;100076.00;;;;347293;28;83388;-85
2022/05/20 00:07:40;;;;;;;;;;;23.30;69.00;23.30;100083.00;;;;346845;28;92418;-85
2022/05/20 00:07:52;;;;;;;;;;;23.30;68.90;23.40;100081.00;;;;346044;28;83338;-85
2022/05/20 00:08:04;;;;;;;;;;;23.30;69.00;23.30;100069.00;;;;345541;28;89370;-85
2022/05/20 00:08:16;;;;;;;;;;;23.30;69.10;23.30;100077.00;;;;346011;28;83225;-85
2022/05/20 00:08:28;;;;;;;;;;;23.30;69.00;23.40;100081.00;;;;346904;28;91842;-85
2022/05/20 00:08:40;;;;;;;;;;;23.30;69.00;23.40;100079.00;;;;347329;28;82465;-85
2022/05/20 00:08:51;;;;;;;;;;;23.30;69.00;23.40;100076.00;;;;345412;28;91022;-85
2022/05/20 00:09:03;;;;;;;;;;;23.30;68.90;23.40;100080.00;;;;345982;28;83382;-84
2022/05/20 00:09:15;;;;;;;;;;;23.30;69.00;23.30;100078.00;;;;345448;28;92897;-85
2022/05/20 00:09:27;;;;;;;;;;;23.30;69.00;23.40;100074.00;;;;344465;28;83304;-85
2022/05/20 00:09:38;;;;;;;;;;;23.30;69.10;23.40;100078.00;;;;345461;28;91191;-85
2022/05/20 00:09:50;;;;;;;;;;;23.30;69.10;23.40;100083.00;;;;346049;28;83107;-85
2022/05/20 00:10:02;;;;;;;;;;;23.30;69.00;23.40;100084.00;;;;346365;28;87906;-85
2022/05/20 00:10:15;;;;;;;;;;;23.30;69.10;23.30;100084.00;;;;345928;28;83306;-85
2022/05/20 00:10:30;;;;;;;;;;;23.30;69.10;23.30;100076.00;;;;343878;28;91817;-85
2022/05/20 00:10:42;;;;;;;;;;;23.30;69.10;23.40;100092.00;;;;344567;28;83315;-86
2022/05/20 00:10:53;;;;;;;;;;;23.30;69.10;23.40;100076.00;;;;344246;28;89657;-86
2022/05/20 00:11:05;;;;;;;;;;;23.30;69.00;23.40;100081.00;;;;344644;28;83406;-85
2022/05/20 00:11:17;;;;;;;;;;;23.30;69.00;23.40;100073.00;;;;344235;28;89980;-86
2022/05/20 00:11:29;;;;;;;;;;;23.30;69.00;23.40;100084.00;;;;344423;28;82466;-85
2022/05/20 00:11:41;;;;;;;;;;;23.30;69.00;23.30;100078.00;;;;345544;28;90347;-85
2022/05/20 00:11:52;;;;;;;;;;;23.30;69.10;23.30;100082.00;;;;344497;28;83348;-85
2022/05/20 00:12:05;;;;;;;;;;;23.30;69.10;23.30;100088.00;;;;344140;28;91998;-85
2022/05/20 00:12:18;;;;;;;;;;;23.30;69.10;23.30;100081.00;;;;344669;28;83360;-85
2022/05/20 00:12:30;;;;;;;;;;;23.30;69.00;23.30;100075.00;;;;344288;28;92614;-85
2022/05/20 00:12:42;;;;;;;;;;;23.30;69.00;23.30;100082.00;;;;344594;28;83311;-85
2022/05/20 00:12:53;;;;;;;;;;;23.30;69.10;23.30;100085.00;;;;345495;28;90873;-86
2022/05/20 00:13:06;;;;;;;;;;;23.30;69.10;23.40;100076.00;;;;345916;28;83401;-85
2022/05/20 00:13:17;;;;;;;;;;;23.30;69.10;23.40;100078.00;;;;347968;27;93089;-85
2022/05/20 00:13:29;;;;;;;;;;;23.30;69.00;23.30;100078.00;;;;348301;27;83477;-85
2022/05/20 00:13:43;;;;;;;;;;;23.30;69.20;23.30;100075.00;;;;345618;28;89111;-85
2022/05/20 00:13:54;;;;;;;;;;;23.30;69.10;23.30;100068.00;;;;348727;27;83301;-85
2022/05/20 00:14:06;;;;;;;;;;;23.30;69.10;23.30;100078.00;;;;346811;27;92106;-85
2022/05/20 00:14:18;;;;;;;;;;;23.30;69.00;23.40;100070.00;;;;347364;28;83263;-85
2022/05/20 00:14:31;;;;;;;;;;;23.30;69.00;23.40;100082.00;;;;345602;28;89045;-85
2022/05/20 00:14:43;;;;;;;;;;;23.30;68.90;23.40;100073.00;;;;347205;28;84077;-85
2022/05/20 00:14:55;;;;;;;;;;;23.30;68.90;23.40;100077.00;;;;346986;28;88731;-85
2022/05/20 00:15:07;;;;;;;;;;;23.30;69.00;23.40;100078.00;;;;347372;28;83144;-85
2022/05/20 00:15:21;;;;;;;;;;;23.30;69.20;23.40;100081.00;;;;348288;27;90024;-84
2022/05/20 00:15:33;;;;;;;;;;;23.30;69.00;23.30;100084.00;;;;348338;27;84143;-85
2022/05/20 00:15:45;;;;;;;;;;;23.30;69.10;23.30;100075.00;;;;347594;27;89429;-85
2022/05/20 00:15:57;;;;;;;;;;;23.30;69.10;23.40;100070.00;;;;347246;28;83378;-85
2022/05/20 00:16:08;;;;;;;;;;;23.30;69.10;23.30;100073.00;;;;346889;28;88391;-85
2022/05/20 00:16:20;;;;;;;;;;;23.30;69.10;23.30;100081.00;;;;346021;28;82470;-86
2022/05/20 00:16:34;;;;;;;;;;;23.30;69.10;23.30;100090.00;;;;345448;28;90362;-85
2022/05/20 00:16:46;;;;;;;;;;;23.30;69.10;23.40;100081.00;;;;345848;28;83514;-85
2022/05/20 00:17:04;;;;;;;;;;;23.30;69.10;23.40;100070.00;;;;344274;28;88728;-85
2022/05/20 00:17:15;;;;;;;;;;;23.30;69.20;23.30;100080.00;;;;347278;28;83358;-85
2022/05/20 00:17:27;;;;;;;;;;;23.30;69.30;23.30;100080.00;;;;346829;28;89730;-85
2022/05/20 00:17:39;;;;;;;;;;;23.30;69.20;23.30;100076.00;;;;347397;28;83319;-85
2022/05/20 00:17:51;;;;;;;;;;;23.30;69.20;23.30;100074.00;;;;344231;28;88966;-85
2022/05/20 00:18:03;;;;;;;;;;;23.30;69.20;23.40;100076.00;;;;345890;28;83525;-85
2022/05/20 00:18:15;;;;;;;;;;;23.30;69.20;23.40;100077.00;;;;345547;28;88118;-85
2022/05/20 00:18:27;;;;;;;;;;;23.30;69.10;23.40;100076.00;;;;347085;28;82271;-85
2022/05/20 00:18:39;;;;;;;;;;;23.30;69.10;23.30;100077.00;;;;346912;28;89076;-85
2022/05/20 00:18:51;;;;;;;;;;;23.30;69.20;23.30;100080.00;;;;344540;28;83464;-85
2022/05/20 00:19:06;;;;;;;;;;;23.30;69.10;23.30;100079.00;;;;345076;28;89135;-85
2022/05/20 00:19:24;;;;;;;;;;;23.30;69.10;23.40;100079.00;;;;345794;28;83318;-85
2022/05/20 00:19:35;;;;;;;;;;;23.30;69.10;23.30;100080.00;;;;346738;28;91981;-85
2022/05/20 00:19:47;;;;;;;;;;;23.30;69.10;23.30;100084.00;;;;348795;27;83412;-85
2022/05/20 00:19:59;;;;;;;;;;;23.30;69.20;23.30;100075.00;;;;345568;28;91899;-85
2022/05/20 00:20:12;;;;;;;;;;;23.30;69.10;23.30;100078.00;;;;345804;28;83401;-85
2022/05/20 00:20:26;;;;;;;;;;;23.30;69.10;23.30;100083.00;;;;347017;28;89035;-85
2022/05/20 00:20:38;;;;;;;;;;;23.30;69.10;23.20;100066.00;;;;347338;28;83256;-85
2022/05/20 00:20:50;;;;;;;;;;;23.30;69.20;23.20;100070.00;;;;348185;27;90668;-85
2022/05/20 00:21:01;;;;;;;;;;;23.20;69.30;23.20;100082.00;;;;347386;28;83286;-85
2022/05/20 00:21:13;;;;;;;;;;;23.20;69.20;23.20;100081.00;;;;346903;28;89253;-85
2022/05/20 00:21:25;;;;;;;;;;;23.20;69.10;23.20;100083.00;;;;345645;28;83356;-85
2022/05/20 00:21:36;;;;;;;;;;;23.20;69.10;23.20;100076.00;;;;346750;28;91897;-85
2022/05/20 00:21:48;;;;;;;;;;;23.20;69.10;23.20;100085.00;;;;345703;28;83290;-85
2022/05/20 00:22:00;;;;;;;;;;;23.20;69.10;23.20;100074.00;;;;345419;28;92330;-85
2022/05/20 00:22:12;;;;;;;;;;;23.20;69.10;23.30;100080.00;;;;345802;28;83397;-85
2022/05/20 00:22:23;;;;;;;;;;;23.20;69.20;23.30;100082.00;;;;345600;28;88898;-85
2022/05/20 00:22:35;;;;;;;;;;;23.20;69.30;23.20;100077.00;;;;346920;28;83211;-85
2022/05/20 00:22:47;;;;;;;;;;;23.20;69.30;23.20;100073.00;;;;345535;28;89082;-86
2022/05/20 00:22:59;;;;;;;;;;;23.20;69.40;23.30;100076.00;;;;346101;28;82381;-85
2022/05/20 00:23:11;;;;;;;;;;;23.20;69.30;23.20;100078.00;;;;345521;28;91868;-85
2022/05/20 00:23:23;;;;;;;;;;;23.20;69.30;23.20;100075.00;;;;345908;28;83371;-85
2022/05/20 00:23:34;;;;;;;;;;;23.30;69.40;23.20;100079.00;;;;345426;28;92117;-85
2022/05/20 00:23:47;;;;;;;;;;;23.20;69.30;23.30;100092.00;;;;347415;28;83151;-85
2022/05/20 00:23:59;;;;;;;;;;;23.20;69.30;23.30;100083.00;;;;348377;27;92115;-85
2022/05/20 00:24:11;;;;;;;;;;;23.20;69.30;23.20;100065.00;;;;347403;28;83371;-85
2022/05/20 00:24:23;;;;;;;;;;;23.20;69.40;23.20;100076.00;;;;346924;28;91527;-85
2022/05/20 00:25:45;;;;;;;;;;;23.20;69.30;23.20;100069.00;;;;348214;27;83662;-85
2022/05/20 00:25:48;;;;;;;;;;;23.20;69.30;23.20;100073.00;;;;344645;28;83357;-85
2022/05/20 00:26:00;;;;;;;;;;;23.20;69.30;23.20;100083.00;;;;345607;28;89115;-85
2022/05/20 00:26:12;;;;;;;;;;;23.20;69.30;23.20;100077.00;;;;345921;28;83432;-85
2022/05/20 00:26:24;;;;;;;;;;;23.20;69.30;23.20;100074.00;;;;345545;28;90009;-85
2022/05/20 00:26:36;;;;;;;;;;;23.20;69.40;23.30;100084.00;;;;345934;28;83474;-85
2022/05/20 00:26:48;;;;;;;;;;;23.20;69.30;23.40;100085.00;;;;348182;27;90462;-85
2022/05/20 00:27:00;;;;;;;;;;;23.20;69.30;23.30;100073.00;;;;345947;28;83551;-85
2022/05/20 00:27:11;;;;;;;;;;;23.20;69.30;23.20;100073.00;;;;345506;28;92367;-85
2022/05/20 00:27:23;;;;;;;;;;;23.20;69.40;23.20;100082.00;;;;346003;28;83262;-85
2022/05/20 00:27:35;;;;;;;;;;;23.20;69.40;23.20;100075.00;;;;346436;28;92378;-85
2022/05/20 00:27:47;;;;;;;;;;;23.20;69.40;23.30;100064.00;;;;347157;28;82738;-85
2022/05/20 00:27:58;;;;;;;;;;;23.20;69.50;23.20;100068.00;;;;346512;28;90618;-85
2022/05/20 00:28:10;;;;;;;;;;;23.20;69.40;23.20;100079.00;;;;345758;28;83273;-85
2022/05/20 00:28:26;;;;;;;;;;;23.20;69.40;23.20;100077.00;;;;345540;28;89677;-85
2022/05/20 00:28:38;;;;;;;;;;;23.20;69.50;23.20;100083.00;;;;347392;28;83333;-85
2022/05/20 00:28:50;;;;;;;;;;;23.20;69.40;23.30;100086.00;;;;346818;28;92581;-85
2022/05/20 00:29:02;;;;;;;;;;;23.20;69.30;23.30;100076.00;;;;348755;27;83325;-86
2022/05/20 00:29:13;;;;;;;;;;;23.20;69.30;23.30;100060.00;;;;348264;27;91955;-85
2022/05/20 00:29:25;;;;;;;;;;;23.20;69.30;23.30;100074.00;;;;348761;27;83312;-85
2022/05/20 00:29:37;;;;;;;;;;;23.20;69.20;23.20;100078.00;;;;346889;28;91221;-85
2022/05/20 00:29:49;;;;;;;;;;;23.20;69.20;23.30;100088.00;;;;347285;28;83308;-85
2022/05/20 00:30:00;;;;;;;;;;;23.20;69.30;23.20;100080.00;;;;346797;28;92401;-85
2022/05/20 00:30:12;;;;;;;;;;;23.20;69.30;23.20;100080.00;;;;347141;28;82483;-85
2022/05/20 00:30:24;;;;;;;;;;;23.20;69.20;23.20;100077.00;;;;345255;28;93132;-86
2022/05/20 00:30:36;;;;;;;;;;;23.20;69.10;23.20;100080.00;;;;345510;28;83378;-85
2022/05/20 00:30:58;;;;;;;;;;;23.20;69.30;23.20;100073.00;;;;345464;28;89026;-85
2022/05/20 00:31:10;;;;;;;;;;;23.20;69.30;23.20;100066.00;;;;345999;28;82365;-85
2022/05/20 00:31:23;;;;;;;;;;;23.20;69.20;23.20;100073.00;;;;345563;28;88098;-85
2022/05/20 00:31:34;;;;;;;;;;;23.20;69.30;23.20;100075.00;;;;346378;28;83327;-85
2022/05/20 00:31:46;;;;;;;;;;;23.20;69.30;23.20;100069.00;;;;345471;28;89275;-85
2022/05/20 00:31:58;;;;;;;;;;;23.20;69.30;23.20;100068.00;;;;344572;28;83510;-85
2022/05/20 00:32:10;;;;;;;;;;;23.20;69.30;23.20;100067.00;;;;344167;28;89081;-85
2022/05/20 00:32:22;;;;;;;;;;;23.20;69.40;23.20;100073.00;;;;346052;28;83068;-85
2022/05/20 00:32:33;;;;;;;;;;;23.20;69.40;23.20;100075.00;;;;346787;28;93004;-85
2022/05/20 00:32:45;;;;;;;;;;;23.20;69.40;23.20;100067.00;;;;347293;28;83188;-85
2022/05/20 00:32:57;;;;;;;;;;;23.20;69.30;23.20;100063.00;;;;345409;28;92414;-85
2022/05/20 00:33:09;;;;;;;;;;;23.10;69.20;23.20;100065.00;;;;344284;28;82427;-85
2022/05/20 00:33:21;;;;;;;;;;;23.10;69.20;23.20;100069.00;;;;345457;28;91055;-85
2022/05/20 00:33:33;;;;;;;;;;;23.20;69.30;23.20;100064.00;;;;345412;28;82467;-85
2022/05/20 00:33:45;;;;;;;;;;;23.20;69.40;23.20;100060.00;;;;345380;28;92521;-85
2022/05/20 00:33:56;;;;;;;;;;;23.20;69.40;23.20;100061.00;;;;345815;28;82573;-85
2022/05/20 00:34:08;;;;;;;;;;;23.20;69.40;23.20;100064.00;;;;345505;28;88682;-85
2022/05/20 00:34:20;;;;;;;;;;;23.20;69.40;23.20;100063.00;;;;345928;28;83405;-85
2022/05/20 00:34:31;;;;;;;;;;;23.10;69.20;23.20;100070.00;;;;345330;28;93242;-85
2022/05/20 00:34:43;;;;;;;;;;;23.10;69.20;23.20;100070.00;;;;345940;28;83389;-85
2022/05/20 00:34:55;;;;;;;;;;;23.10;69.30;23.20;100075.00;;;;345474;28;90740;-85
2022/05/20 00:35:08;;;;;;;;;;;23.10;69.20;23.20;100076.00;;;;344535;28;83323;-85
2022/05/20 00:35:20;;;;;;;;;;;23.20;69.30;23.20;100077.00;;;;345636;28;87617;-85
2022/05/20 00:35:32;;;;;;;;;;;23.20;69.30;23.20;100073.00;;;;345837;28;83403;-85
2022/05/20 00:35:45;;;;;;;;;;;23.10;69.20;23.20;100059.00;;;;345511;28;90602;-85
2022/05/20 00:35:57;;;;;;;;;;;23.20;69.20;23.20;100067.00;;;;345795;28;82414;-85
2022/05/20 00:36:08;;;;;;;;;;;23.20;69.30;23.20;100066.00;;;;345197;28;90882;-85
2022/05/20 00:36:20;;;;;;;;;;;23.20;69.30;23.20;100069.00;;;;345922;28;83353;-85
2022/05/20 00:36:32;;;;;;;;;;;23.20;69.30;23.20;100067.00;;;;346025;28;90128;-85
2022/05/20 00:36:44;;;;;;;;;;;23.10;69.10;23.20;100063.00;;;;345791;28;83408;-86
2022/05/20 00:36:55;;;;;;;;;;;23.10;69.20;23.20;100066.00;;;;345471;28;92086;-85
2022/05/20 00:37:07;;;;;;;;;;;23.20;69.30;23.20;100074.00;;;;346039;28;83266;-85
2022/05/20 00:37:19;;;;;;;;;;;23.10;69.30;23.20;100083.00;;;;345621;28;88701;-85
2022/05/20 00:37:31;;;;;;;;;;;23.10;69.30;23.10;100066.00;;;;345865;28;83644;-85
2022/05/20 00:37:44;;;;;;;;;;;23.10;69.40;23.10;100064.00;;;;345521;28;92274;-85
2022/05/20 00:37:55;;;;;;;;;;;23.10;69.30;23.20;100058.00;;;;346042;28;83235;-85
2022/05/20 00:38:07;;;;;;;;;;;23.10;69.20;23.10;100052.00;;;;346754;28;92064;-85
2022/05/20 00:38:20;;;;;;;;;;;23.10;69.80;23.20;100064.00;;;;347494;28;83245;-85
2022/05/20 00:38:32;;;;;;;;;;;23.10;69.10;23.20;100069.00;;;;345460;28;89520;-85
2022/05/20 00:38:44;;;;;;;;;;;23.10;69.20;23.20;100068.00;;;;345896;28;83346;-85
2022/05/20 00:38:55;;;;;;;;;;;23.10;69.20;23.20;100067.00;;;;348309;27;88579;-85
2022/05/20 00:39:07;;;;;;;;;;;23.10;69.20;23.20;100067.00;;;;348769;27;83190;-85
2022/05/20 00:39:19;;;;;;;;;;;23.10;69.10;23.20;100065.00;;;;348311;27;90884;-85
2022/05/20 00:39:30;;;;;;;;;;;23.20;69.10;23.20;100064.00;;;;346767;28;86507;-85
2022/05/20 00:39:42;;;;;;;;;;;23.10;69.10;23.20;100074.00;;;;346864;27;90555;-85
2022/05/20 00:39:54;;;;;;;;;;;23.10;69.20;23.20;100078.00;;;;347440;28;83087;-85
2022/05/20 00:40:07;;;;;;;;;;;23.10;69.20;23.20;100058.00;;;;343985;28;91725;-85
2022/05/20 00:40:21;;;;;;;;;;;23.10;69.10;23.20;100067.00;;;;345997;28;83173;-85
2022/05/20 00:40:33;;;;;;;;;;;23.10;69.10;23.20;100056.00;;;;346012;28;92977;-85
2022/05/20 00:40:45;;;;;;;;;;;23.20;69.30;23.10;100057.00;;;;347317;28;82536;-85
2022/05/20 00:41:00;;;;;;;;;;;23.10;69.20;23.10;100063.00;;;;345557;28;89834;-85
2022/05/20 00:41:12;;;;;;;;;;;23.10;69.10;23.10;100068.00;;;;348815;27;83366;-85
2022/05/20 00:41:24;;;;;;;;;;;23.10;69.00;23.10;100068.00;;;;348149;27;90514;-85
2022/05/20 00:41:36;;;;;;;;;;;23.10;69.10;23.10;100067.00;;;;348854;27;83234;-85
2022/05/20 00:41:48;;;;;;;;;;;23.10;69.00;23.10;100073.00;;;;348286;27;89619;-85
2022/05/20 00:42:13;;;;;;;;;;;23.10;69.10;23.10;100068.00;;;;345953;28;83430;-85
2022/05/20 00:42:24;;;;;;;;;;;23.10;69.10;23.10;100067.00;;;;348261;27;88974;-85
2022/05/20 00:42:36;;;;;;;;;;;23.10;69.10;23.10;100074.00;;;;346939;28;82433;-85
2022/05/20 00:42:49;;;;;;;;;;;23.10;69.20;23.10;100067.00;;;;346569;28;90010;-85
2022/05/20 00:43:07;;;;;;;;;;;23.10;69.10;23.10;100077.00;;;;347893;27;83443;-85
2022/05/20 00:43:25;;;;;;;;;;;23.10;69.10;23.10;100078.00;;;;345571;28;91384;-85
2022/05/20 00:43:39;;;;;;;;;;;23.10;69.00;23.10;100069.00;;;;345972;28;82467;-85
2022/05/20 00:43:51;;;;;;;;;;;23.10;68.90;23.10;100069.00;;;;348352;27;89138;-85
2022/05/20 00:44:03;;;;;;;;;;;23.10;68.90;23.10;100068.00;;;;347313;28;83189;-85
2022/05/20 00:44:15;;;;;;;;;;;23.10;68.90;23.10;100076.00;;;;346852;28;92013;-86
2022/05/20 00:44:26;;;;;;;;;;;23.10;68.90;23.10;100062.00;;;;347248;28;83221;-85
2022/05/20 00:44:38;;;;;;;;;;;23.10;69.00;23.10;100074.00;;;;345502;28;91941;-85
2022/05/20 00:44:50;;;;;;;;;;;23.10;69.00;23.10;100076.00;;;;347202;28;83288;-85
2022/05/20 00:45:03;;;;;;;;;;;23.10;69.00;23.10;100069.00;;;;345330;28;89655;-85
2022/05/20 00:45:15;;;;;;;;;;;23.10;69.00;23.10;100073.00;;;;344662;28;83381;-85
2022/05/20 00:45:27;;;;;;;;;;;23.10;69.00;23.10;100059.00;;;;344208;28;88351;-85
2022/05/20 00:45:40;;;;;;;;;;;23.00;68.90;23.10;100063.00;;;;346931;28;82270;-85
2022/05/20 00:45:53;;;;;;;;;;;23.10;69.00;23.10;100062.00;;;;345602;28;88094;-85
2022/05/20 00:46:10;;;;;;;;;;;23.10;69.00;23.10;100070.00;;;;345753;28;83489;-85
2022/05/20 00:46:24;;;;;;;;;;;23.10;68.90;23.00;100073.00;;;;345534;28;88782;-85
2022/05/20 00:46:36;;;;;;;;;;;23.00;68.90;23.00;100073.00;;;;345950;28;82558;-85
2022/05/20 00:46:48;;;;;;;;;;;23.00;68.90;23.10;100067.00;;;;346827;28;89700;-85
2022/05/20 00:46:59;;;;;;;;;;;23.10;69.00;23.00;100074.00;;;;347412;28;83279;-85
2022/05/20 00:47:12;;;;;;;;;;;23.00;69.10;23.00;100070.00;;;;345418;28;90821;-86
2022/05/20 00:47:24;;;;;;;;;;;23.00;69.20;23.10;100064.00;;;;344555;28;83461;-85
2022/05/20 00:47:36;;;;;;;;;;;23.00;69.00;23.10;100077.00;;;;345510;28;89317;-85
2022/05/20 00:47:47;;;;;;;;;;;23.00;69.00;23.10;100073.00;;;;345991;28;83385;-85
2022/05/20 00:47:59;;;;;;;;;;;23.00;68.90;23.10;100077.00;;;;345569;28;88860;-85
2022/05/20 00:48:11;;;;;;;;;;;23.00;69.10;23.10;100067.00;;;;347079;28;82559;-85
2022/05/20 00:48:23;;;;;;;;;;;23.00;69.00;23.10;100076.00;;;;348337;27;89439;-85
2022/05/20 00:48:35;;;;;;;;;;;23.00;68.90;23.10;100074.00;;;;349553;27;83525;-85
2022/05/20 00:48:47;;;;;;;;;;;23.00;69.00;23.10;100073.00;;;;348197;27;87641;-85
2022/05/20 00:49:01;;;;;;;;;;;23.00;69.00;23.10;100076.00;;;;348731;27;83215;-85
2022/05/20 00:49:13;;;;;;;;;;;23.00;68.90;23.10;100077.00;;;;345490;28;90510;-84
2022/05/20 00:49:25;;;;;;;;;;;23.10;69.00;23.10;100079.00;;;;345926;28;83431;-85
2022/05/20 00:49:37;;;;;;;;;;;23.10;69.00;23.10;100070.00;;;;346620;28;90899;-85
2022/05/20 00:49:52;;;;;;;;;;;23.00;68.90;23.10;100064.00;;;;346008;28;83239;-85
2022/05/20 00:50:06;;;;;;;;;;;23.00;68.90;23.00;100076.00;;;;344049;28;92628;-85
2022/05/20 00:50:18;;;;;;;;;;;23.00;68.70;23.10;100073.00;;;;344692;28;83313;-85
2022/05/20 00:50:30;;;;;;;;;;;23.10;68.80;23.00;100075.00;;;;347803;27;91714;-85
2022/05/20 00:50:44;;;;;;;;;;;23.00;68.70;23.10;100082.00;;;;343162;28;83722;-85
2022/05/20 00:51:01;;;;;;;;;;;23.00;68.80;23.00;100080.00;;;;344043;28;90446;-85
2022/05/20 00:51:27;;;;;;;;;;;23.00;68.90;23.10;100075.00;;;;348670;27;83271;-85
2022/05/20 00:51:42;;;;;;;;;;;23.00;68.90;23.10;100073.00;;;;348987;27;93093;-85
2022/05/20 00:51:53;;;;;;;;;;;23.00;68.80;23.10;100065.00;;;;348787;27;83343;-85
2022/05/20 00:52:05;;;;;;;;;;;23.00;68.80;23.00;100077.00;;;;343989;28;92339;-85
2022/05/20 00:52:19;;;;;;;;;;;23.00;68.80;23.10;100070.00;;;;344571;28;83373;-85
2022/05/20 00:52:31;;;;;;;;;;;23.00;68.80;23.00;100076.00;;;;347226;27;90553;-85
2022/05/20 00:52:46;;;;;;;;;;;23.00;68.70;23.10;100078.00;;;;347277;28;83467;-85
2022/05/20 00:52:57;;;;;;;;;;;23.00;68.70;23.10;100076.00;;;;345589;28;89043;-85
2022/05/20 00:53:10;;;;;;;;;;;23.00;68.70;23.10;100073.00;;;;345977;28;83167;-85
2022/05/20 00:53:24;;;;;;;;;;;23.00;68.70;23.10;100069.00;;;;344152;28;90846;-85
2022/05/20 00:53:39;;;;;;;;;;;23.00;68.70;23.10;100070.00;;;;347346;28;83235;-85
2022/05/20 00:53:55;;;;;;;;;;;23.00;68.70;23.00;100074.00;;;;346777;28;92003;-85
2022/05/20 00:54:13;;;;;;;;;;;23.00;68.80;23.00;100076.00;;;;347207;28;82215;-85
2022/05/20 00:54:36;;;;;;;;;;;23.00;68.70;23.10;100074.00;;;;345371;28;89377;-85
2022/05/20 00:54:50;;;;;;;;;;;23.00;68.70;23.00;100075.00;;;;345463;28;83289;-85
2022/05/20 00:55:06;;;;;;;;;;;23.00;68.80;23.00;100079.00;;;;345515;28;89726;-85
2022/05/20 00:55:19;;;;;;;;;;;23.00;68.70;23.00;100077.00;;;;344598;28;83303;-85
2022/05/20 00:55:31;;;;;;;;;;;23.00;68.70;23.00;100069.00;;;;345496;28;88870;-85
2022/05/20 00:55:43;;;;;;;;;;;23.00;68.70;23.00;100074.00;;;;347322;28;82532;-85
2022/05/20 00:55:55;;;;;;;;;;;23.00;68.70;23.00;100077.00;;;;346864;28;89335;-85
2022/05/20 00:56:08;;;;;;;;;;;23.00;68.90;23.00;100078.00;;;;345846;28;82283;-85
2022/05/20 00:56:23;;;;;;;;;;;23.00;68.90;23.00;100087.00;;;;344121;28;90204;-85
2022/05/20 00:56:39;;;;;;;;;;;23.00;68.70;23.00;100083.00;;;;345919;28;83425;-85
2022/05/20 00:57:10;;;;;;;;;;;23.00;68.60;23.00;100085.00;;;;347831;27;89520;-85
2022/05/20 00:57:24;;;;;;;;;;;23.00;68.70;23.00;100081.00;;;;345886;28;83396;-85
2022/05/20 00:57:42;;;;;;;;;;;23.00;68.80;23.00;100080.00;;;;343728;28;89506;-85
2022/05/20 00:57:57;;;;;;;;;;;23.00;68.80;23.10;100077.00;;;;345988;28;83425;-85
2022/05/20 00:58:10;;;;;;;;;;;23.00;68.90;23.10;100080.00;;;;345435;28;89326;-85
2022/05/20 00:58:22;;;;;;;;;;;23.00;68.80;23.10;100085.00;;;;344559;28;83358;-85
2022/05/20 00:58:34;;;;;;;;;;;23.00;68.70;23.00;100075.00;;;;346356;28;89470;-85
2022/05/20 00:58:49;;;;;;;;;;;23.00;68.70;23.10;100082.00;;;;347269;28;83528;-85
2022/05/20 00:59:01;;;;;;;;;;;23.00;68.70;23.10;100081.00;;;;345594;28;90021;-85
2022/05/20 00:59:16;;;;;;;;;;;23.00;68.70;23.10;100069.00;;;;345980;28;82356;-84
2022/05/20 00:59:28;;;;;;;;;;;23.00;68.70;23.10;100075.00;;;;346779;28;92429;-85
2022/05/20 00:59:43;;;;;;;;;;;23.00;68.60;23.10;100073.00;;;;345952;28;83206;-85
2022/05/20 01:00:01;;;;;;;;;;;23.00;68.70;23.10;100077.00;;;;346533;28;92505;-85
2022/05/20 01:00:17;;;;;;;;;;;23.00;68.70;23.10;100082.00;;;;345919;28;83478;-85
2022/05/20 01:00:29;;;;;;;;;;;23.00;68.70;23.10;100081.00;;;;344955;28;89232;-85
2022/05/20 01:00:46;;;;;;;;;;;23.00;68.70;23.10;100085.00;;;;345882;28;83582;-85
2022/05/20 01:00:58;;;;;;;;;;;23.00;68.80;23.10;100069.00;;;;347866;27;89262;-85
2022/05/20 01:01:10;;;;;;;;;;;23.00;68.80;23.00;100076.00;;;;345951;28;82348;-85
2022/05/20 01:01:22;;;;;;;;;;;23.00;68.70;23.00;100075.00;;;;346746;28;92525;-85
2022/05/20 01:01:34;;;;;;;;;;;23.00;68.80;23.00;100078.00;;;;346523;28;83369;-86
2022/05/20 01:01:49;;;;;;;;;;;23.00;68.60;23.00;100078.00;;;;345423;28;89510;-85
2022/05/20 01:02:03;;;;;;;;;;;23.00;68.60;23.00;100076.00;;;;345990;28;83202;-85
2022/05/20 01:02:17;;;;;;;;;;;23.00;68.60;23.00;100074.00;;;;344120;28;89612;-85
2022/05/20 01:02:35;;;;;;;;;;;23.00;68.60;23.10;100074.00;;;;345988;28;83381;-85
2022/05/20 01:02:47;;;;;;;;;;;23.00;68.60;23.10;100078.00;;;;345455;28;89549;-85
2022/05/20 01:03:01;;;;;;;;;;;23.00;68.60;23.00;100077.00;;;;345992;28;83346;-85